Moscow, Indiana
Current Conditions -  °F | °C
As of 12:53 AM on Sunday 26 Oct 2014 (Local Time) from KGEZ Reporting Station
Clear Clear  
Wind Chill: 57°   Ceiling: Unl
Heat Index: 57°   Visibility: 10mi
Dew Point: 39°   Wind: 8mph
Humidity: 51%   Direction: 310°NW
Pressure: 29.96"   Gusts: NA
Location:  39.4961°N, 85.5177°W
Report Text: KGEZ 260453Z AUTO 31007KT 10SM CLR 14/04 A2996 RMK AO2 SLP143 T01390039 402560100
Loading
Personal Weather Stations






























Interactive Weather Map
Tropical Storm Tracking
New forecast layout! Learn more

10-Day Weather Forecast

Advertisements
Track Severe Weather on mobile